Time;durP1;ratioP1;P1;durP2;ratioP2;P2;SDS_P1;SDS_P2;PMS_P1;PMS_P2;Temp;Humidity;BMP_temperature;BMP_pressure;BME280_temperature;BME280_humidity;BME280_pressure;Samples;Min_cycle;Max_cycle;Signal;HPM_P1;HPM_P2
2021/12/02 00:01:18;;;;;;;8.80;2.47;;;;;;;3.99;91.53;99839.16;5017770;28;20542;-71
2021/12/02 00:03:45;;;;;;;10.60;2.40;;;;;;;4.01;90.98;99847.13;5007216;28;20594;-70
2021/12/02 00:06:12;;;;;;;6.88;1.88;;;;;;;3.99;90.92;99836.44;5025558;28;20034;-71
2021/12/02 00:08:38;;;;;;;7.40;1.70;;;;;;;4.00;89.88;99834.56;5007745;28;20026;-71
2021/12/02 01:21:43;;;;;;;8.77;2.00;;;;;;;3.71;92.09;99857.59;2446938;28;20041;-71
2021/12/02 01:24:11;;;;;;;9.48;2.08;;;;;;;3.63;92.80;99856.75;5010855;28;20038;-70
2021/12/02 01:26:36;;;;;;;8.30;2.08;;;;;;;3.62;93.03;99859.69;5013232;28;20327;-71
2021/12/02 01:29:04;;;;;;;6.57;2.10;;;;;;;3.64;93.57;99855.72;5008941;28;20022;-70
2021/12/02 01:31:31;;;;;;;13.13;2.50;;;;;;;3.68;93.30;99861.56;5023707;28;20447;-70
2021/12/02 01:34:00;;;;;;;6.88;1.85;;;;;;;3.72;93.07;99860.09;5024093;28;20611;-71
2021/12/02 01:36:31;;;;;;;10.45;2.47;;;;;;;3.76;93.39;99876.81;5021069;28;20041;-71
2021/12/02 01:38:56;;;;;;;9.52;2.17;;;;;;;3.78;93.30;99885.56;5004530;28;20041;-70
2021/12/02 01:41:22;;;;;;;7.43;1.50;;;;;;;3.81;93.91;99880.56;5004250;28;20037;-71
2021/12/02 01:43:50;;;;;;;9.35;1.90;;;;;;;3.88;92.95;99878.66;5011942;28;20124;-70
2021/12/02 01:46:24;;;;;;;8.85;2.03;;;;;;;3.84;93.46;99879.28;5019503;28;20069;-71
2021/12/02 01:49:04;;;;;;;7.25;2.17;;;;;;;3.80;93.58;99862.63;5019367;28;20087;-70
2021/12/02 01:51:31;;;;;;;8.35;1.80;;;;;;;3.77;93.41;99881.19;5006398;28;20087;-71
2021/12/02 01:54:05;;;;;;;6.17;1.80;;;;;;;3.73;94.12;99872.63;5023187;28;20029;-70
2021/12/02 01:56:34;;;;;;;7.05;1.60;;;;;;;3.70;94.31;99875.78;5021213;28;20097;-70
2021/12/02 01:59:14;;;;;;;4.60;1.30;;;;;;;3.68;94.22;99872.44;5024178;28;20120;-70
2021/12/02 02:01:42;;;;;;;6.78;1.50;;;;;;;3.58;93.59;99870.13;5017797;28;20500;-70
2021/12/02 02:04:08;;;;;;;7.28;1.45;;;;;;;3.49;93.53;99868.66;5005480;28;20487;-70
2021/12/02 02:06:40;;;;;;;6.07;2.15;;;;;;;3.38;93.49;99863.88;5016014;28;20437;-70
2021/12/02 02:09:08;;;;;;;5.93;1.60;;;;;;;3.26;94.07;99865.53;5024241;28;20037;-70
2021/12/02 02:11:34;;;;;;;4.13;1.70;;;;;;;3.16;94.30;99862.38;5008327;28;20033;-70
2021/12/02 02:14:00;;;;;;;8.50;1.83;;;;;;;3.12;95.13;99865.50;5017380;28;20029;-70
2021/12/02 02:16:27;;;;;;;5.72;1.50;;;;;;;3.05;95.07;99870.09;5025895;28;20396;-70
2021/12/02 02:18:52;;;;;;;4.68;1.73;;;;;;;3.02;95.32;99869.66;5010721;28;20447;-70
2021/12/02 02:21:20;;;;;;;6.80;1.55;;;;;;;3.00;95.19;99867.16;5017847;28;20029;-71
2021/12/02 02:23:51;;;;;;;;;;;;;;;3.04;95.41;99864.84;5028019;28;20037;-70
2021/12/02 02:26:27;;;;;;;6.28;1.80;;;;;;;2.96;95.53;99862.34;5012008;28;19914;-71
2021/12/02 02:28:54;;;;;;;7.82;1.67;;;;;;;2.92;96.01;99864.63;5008276;28;20164;-70
2021/12/02 02:31:20;;;;;;;7.90;1.73;;;;;;;2.90;95.98;99865.91;5024173;28;20068;-71
2021/12/02 02:33:50;;;;;;;6.07;1.80;;;;;;;2.90;96.81;99864.00;5020619;28;20029;-70
2021/12/02 02:36:18;;;;;;;8.02;2.13;;;;;;;2.95;97.30;99866.13;5008257;28;20460;-70
2021/12/02 02:38:54;;;;;;;;;;;;;;;3.04;96.92;99857.59;5019181;28;20033;-70
2021/12/02 02:41:21;;;;;;;8.10;2.03;;;;;;;3.01;96.64;99859.88;5012940;28;19940;-71
2021/12/02 02:43:51;;;;;;;9.82;2.10;;;;;;;3.00;97.11;99855.47;5008160;28;20056;-70
2021/12/02 02:46:23;;;;;;;8.45;2.20;;;;;;;2.97;96.86;99861.31;5008821;28;20109;-70
2021/12/02 02:48:48;;;;;;;8.85;2.30;;;;;;;2.96;96.46;99857.75;5008141;28;20033;-70
2021/12/02 02:51:13;;;;;;;8.73;2.45;;;;;;;2.92;97.03;99856.50;5011480;28;20021;-70
2021/12/02 02:53:39;;;;;;;6.07;2.22;;;;;;;2.88;97.14;99855.22;5026463;28;20029;-71
2021/12/02 02:56:09;;;;;;;12.00;2.35;;;;;;;2.82;97.34;99858.75;5023413;22;20053;-70
2021/12/02 03:01:36;;;;;;;8.13;2.22;;;;;;;2.71;97.17;99865.63;5006038;28;20507;-70
2021/12/02 03:09:07;;;;;;;8.90;2.22;;;;;;;2.60;97.20;99871.63;5006898;28;20030;-70
2021/12/02 03:11:45;;;;;;;8.73;2.72;;;;;;;2.59;97.64;99876.22;5013644;28;20338;-70
2021/12/02 03:14:12;;;;;;;8.80;2.20;;;;;;;2.59;97.72;99878.94;5007201;28;20508;-70
2021/12/02 03:16:45;;;;;;;11.98;2.88;;;;;;;2.59;97.62;99889.78;5006440;28;20053;-70
2021/12/02 03:19:31;;;;;;;10.85;2.15;;;;;;;2.62;97.88;99882.25;5007904;28;20034;-70
2021/12/02 03:21:57;;;;;;;9.20;2.17;;;;;;;2.69;97.87;99873.13;5019074;28;20061;-70
2021/12/02 03:24:23;;;;;;;8.27;1.88;;;;;;;2.74;97.34;99883.38;5006134;28;20063;-70
2021/12/02 03:26:49;;;;;;;7.35;1.75;;;;;;;2.75;97.17;99883.16;5007591;28;20029;-70
2021/12/02 03:29:14;;;;;;;7.63;2.25;;;;;;;2.76;97.14;99881.28;5006805;28;20036;-70
2021/12/02 03:31:40;;;;;;;13.75;2.30;;;;;;;2.81;96.73;99886.94;5018604;28;20488;-70
2021/12/02 03:34:07;;;;;;;9.20;1.75;;;;;;;2.79;96.63;99889.84;5016670;28;20500;-70
2021/12/02 03:36:33;;;;;;;9.65;2.30;;;;;;;2.77;96.22;99894.63;5007409;28;20018;-70
2021/12/02 03:38:59;;;;;;;10.32;2.05;;;;;;;2.74;96.58;99883.38;5009172;28;20068;-70
2021/12/02 03:41:24;;;;;;;10.88;2.83;;;;;;;2.70;96.36;99888.34;5027121;28;20052;-70
2021/12/02 03:43:50;;;;;;;9.00;3.00;;;;;;;2.65;96.65;99898.13;5023340;28;20053;-70
2021/12/02 03:46:20;;;;;;;12.65;2.20;;;;;;;2.60;96.63;99893.31;5007217;28;20057;-70
2021/12/02 03:48:46;;;;;;;11.50;2.20;;;;;;;2.62;97.15;99895.81;5006006;28;20038;-71
2021/12/02 03:51:12;;;;;;;8.52;1.88;;;;;;;2.60;96.96;99893.31;5006708;28;20040;-70
2021/12/02 03:53:38;;;;;;;8.23;2.42;;;;;;;2.59;96.58;99897.06;5006343;28;20042;-70
2021/12/02 03:56:06;;;;;;;10.05;2.13;;;;;;;2.56;96.36;99901.00;5005986;28;20049;-70
2021/12/02 03:58:33;;;;;;;7.80;2.10;;;;;;;2.55;96.47;99891.22;5004700;28;20388;-71
2021/12/02 04:00:58;;;;;;;6.75;1.60;;;;;;;2.57;96.97;99899.97;5006526;28;20671;-70
2021/12/02 04:03:23;;;;;;;6.68;1.95;;;;;;;2.60;97.10;99888.72;5006595;28;20022;-70
2021/12/02 04:05:49;;;;;;;9.77;3.78;;;;;;;2.67;97.13;99882.50;5006639;28;20041;-70
2021/12/02 04:08:14;;;;;;;8.25;4.45;;;;;;;2.68;96.77;99876.03;5004997;28;20061;-71
2021/12/02 04:10:41;;;;;;;9.20;3.72;;;;;;;2.64;96.35;99867.50;5015270;28;20044;-71
2021/12/02 04:13:13;;;;;;;9.52;4.72;;;;;;;2.60;96.46;99864.34;5006173;28;20026;-70
2021/12/02 04:15:40;;;;;;;8.15;3.90;;;;;;;2.59;96.04;99875.38;5006591;28;20056;-71
2021/12/02 04:18:06;;;;;;;9.30;3.15;;;;;;;2.60;96.01;99875.19;5006043;28;20041;-70
2021/12/02 04:20:32;;;;;;;10.32;3.45;;;;;;;2.64;96.31;99880.22;5005783;28;20025;-70
2021/12/02 04:22:57;;;;;;;10.13;2.90;;;;;;;2.65;96.05;99884.59;5005662;28;20030;-70
2021/12/02 04:25:24;;;;;;;8.27;1.60;;;;;;;2.70;96.33;99892.94;5005614;28;20049;-71
2021/12/02 04:27:51;;;;;;;7.35;1.67;;;;;;;2.74;95.92;99886.09;5005841;28;20084;-71
2021/12/02 04:30:20;;;;;;;11.50;4.35;;;;;;;2.76;96.23;99897.56;5004982;28;20030;-72
2021/12/02 04:32:46;;;;;;;5.07;1.80;;;;;;;2.82;95.43;99905.69;5006084;28;20034;-70
2021/12/02 04:35:13;;;;;;;7.47;1.70;;;;;;;2.86;94.89;99906.13;5004789;28;20032;-71
2021/12/02 04:37:39;;;;;;;6.45;1.60;;;;;;;2.83;94.83;99912.78;5003738;28;20528;-71
2021/12/02 04:40:06;;;;;;;4.57;1.70;;;;;;;2.80;94.40;99921.34;5018157;28;20040;-71
2021/12/02 04:42:31;;;;;;;6.13;1.70;;;;;;;2.78;94.44;99919.84;5008068;28;20026;-71
2021/12/02 04:44:57;;;;;;;6.35;2.15;;;;;;;2.75;94.85;99917.56;5006075;28;20365;-70
2021/12/02 04:47:22;;;;;;;5.38;2.17;;;;;;;2.69;94.65;99912.97;5004230;28;20044;-70
2021/12/02 04:49:48;;;;;;;7.05;2.10;;;;;;;2.61;94.45;99916.66;5017578;28;20030;-70
2021/12/02 04:52:13;;;;;;;3.60;1.50;;;;;;;2.55;94.36;99921.03;5004541;28;20196;-70
2021/12/02 04:54:39;;;;;;;5.55;1.38;;;;;;;2.45;94.44;99920.56;5005136;28;20088;-71
2021/12/02 04:57:04;;;;;;;5.03;1.40;;;;;;;2.37;95.05;99919.88;5003681;28;20042;-71
2021/12/02 04:59:30;;;;;;;4.78;1.70;;;;;;;2.32;95.37;99926.72;5004236;28;20060;-70
2021/12/02 05:01:55;;;;;;;9.57;1.70;;;;;;;2.28;95.60;99928.19;5004386;28;20038;-71
2021/12/02 05:04:20;;;;;;;3.80;1.33;;;;;;;2.31;95.78;99933.19;5005849;28;20034;-71
2021/12/02 05:06:46;;;;;;;8.55;1.80;;;;;;;2.38;96.06;99933.22;5005596;28;20030;-70
2021/12/02 05:09:12;;;;;;;5.05;1.20;;;;;;;2.42;96.17;99941.78;5002701;28;20030;-70
2021/12/02 05:11:40;;;;;;;5.70;1.88;;;;;;;2.46;96.51;99945.78;5005685;28;20709;-70
2021/12/02 05:14:08;;;;;;;;;;;;;;;2.55;96.32;99944.59;5005045;28;20033;-70
2021/12/02 05:16:34;;;;;;;7.43;1.40;;;;;;;2.53;96.10;99946.66;5005509;28;19918;-71
2021/12/02 05:18:59;;;;;;;5.45;1.65;;;;;;;2.49;96.08;99946.22;5013314;28;20451;-70
2021/12/02 05:21:25;;;;;;;4.03;1.90;;;;;;;2.47;95.46;99942.03;5025328;28;20132;-69
2021/12/02 05:23:53;;;;;;;5.72;2.38;;;;;;;2.44;95.84;99942.44;5020033;28;20387;-69
2021/12/02 05:26:23;;;;;;;8.15;2.53;;;;;;;2.41;95.37;99937.41;5024597;28;20086;-69
2021/12/02 05:28:49;;;;;;;5.82;2.13;;;;;;;2.39;95.46;99936.78;5009350;28;20030;-69
2021/12/02 05:31:15;;;;;;;8.98;2.28;;;;;;;2.38;95.99;99932.38;5004820;28;20091;-69
2021/12/02 05:33:40;;;;;;;6.05;2.00;;;;;;;2.33;95.57;99933.84;5004706;28;20037;-70
2021/12/02 05:36:05;;;;;;;4.43;1.67;;;;;;;2.30;95.38;99942.38;5004826;28;20075;-69
2021/12/02 05:38:30;;;;;;;3.45;1.77;;;;;;;2.26;95.21;99943.78;5010528;28;20040;-70
2021/12/02 05:40:56;;;;;;;4.38;1.92;;;;;;;2.26;95.12;99957.34;5012184;28;20061;-70
2021/12/02 05:43:21;;;;;;;3.92;2.10;;;;;;;2.23;95.25;99954.19;5005146;28;20052;-70
2021/12/02 05:45:46;;;;;;;7.43;2.53;;;;;;;2.18;95.18;99954.81;5004644;28;20014;-70
2021/12/02 05:48:12;;;;;;;4.90;2.00;;;;;;;2.16;95.57;99954.16;5004546;28;20417;-70
2021/12/02 05:50:37;;;;;;;4.05;1.80;;;;;;;2.15;95.49;99949.78;5007307;28;20048;-70
2021/12/02 05:53:02;;;;;;;4.63;1.90;;;;;;;2.17;95.80;99955.81;5022162;28;20029;-69
2021/12/02 05:55:28;;;;;;;6.47;2.50;;;;;;;2.18;96.13;99962.06;5019009;28;20440;-69
2021/12/02 05:57:53;;;;;;;5.10;2.72;;;;;;;2.17;96.37;99960.41;5003423;28;20064;-69
2021/12/02 06:00:19;;;;;;;6.40;2.80;;;;;;;2.17;96.12;99954.97;5003974;28;20089;-69
2021/12/02 06:02:45;;;;;;;6.03;2.00;;;;;;;2.13;96.34;99957.28;5003532;28;20036;-69
2021/12/02 06:05:15;;;;;;;5.03;1.90;;;;;;;2.07;96.00;99958.88;5002215;28;20053;-69
2021/12/02 06:07:40;;;;;;;6.85;1.70;;;;;;;2.02;95.72;99955.91;5001706;28;20033;-69
2021/12/02 06:10:06;;;;;;;3.30;1.73;;;;;;;1.97;96.02;99962.97;5003235;28;20060;-69
2021/12/02 06:12:32;;;;;;;5.03;1.95;;;;;;;1.91;96.44;99955.63;5004619;28;20026;-69
2021/12/02 06:14:57;;;;;;;4.10;1.50;;;;;;;1.83;96.14;99956.63;5003631;28;20691;-70
2021/12/02 06:17:22;;;;;;;4.47;1.52;;;;;;;1.79;96.67;99949.91;5003511;28;20034;-69
2021/12/02 06:19:48;;;;;;;2.92;1.60;;;;;;;1.73;96.68;99956.94;5004390;28;20041;-69
2021/12/02 06:22:14;;;;;;;4.28;1.58;;;;;;;1.66;96.68;99952.50;5003033;28;20068;-69
2021/12/02 06:24:43;;;;;;;7.60;1.75;;;;;;;1.60;96.89;99962.25;5004372;28;20021;-69
2021/12/02 06:27:09;;;;;;;4.90;1.60;;;;;;;1.55;96.90;99962.81;5003033;28;20030;-69
2021/12/02 06:29:37;;;;;;;3.70;1.40;;;;;;;1.53;97.14;99964.06;5009378;28;20188;-70
2021/12/02 06:32:04;;;;;;;5.23;1.30;;;;;;;1.49;97.36;99969.00;5002733;28;20103;-69
2021/12/02 06:34:30;;;;;;;3.72;1.48;;;;;;;1.47;97.23;99971.09;5002790;28;20375;-69
2021/12/02 06:36:55;;;;;;;6.18;2.00;;;;;;;1.46;97.74;99969.38;5021722;28;20594;-69
2021/12/02 06:39:20;;;;;;;14.73;4.57;;;;;;;1.46;97.74;99974.78;5001615;28;20041;-69
2021/12/02 06:41:45;;;;;;;8.90;3.90;;;;;;;1.52;97.87;99965.06;5021886;28;20029;-69
2021/12/02 06:44:12;;;;;;;6.80;3.00;;;;;;;1.55;97.97;99972.81;5023992;28;20387;-69
2021/12/02 06:46:38;;;;;;;7.80;2.88;;;;;;;1.63;98.27;99977.28;5005134;28;20033;-69
2021/12/02 06:49:03;;;;;;;5.63;3.10;;;;;;;1.67;97.90;99983.94;5003445;28;20049;-69
2021/12/02 06:51:28;;;;;;;7.47;3.80;;;;;;;1.68;97.82;99991.06;5004536;28;20097;-69
2021/12/02 06:53:54;;;;;;;8.75;5.53;;;;;;;1.66;97.73;99990.38;5007808;28;20044;-69
2021/12/02 06:56:19;;;;;;;7.07;4.45;;;;;;;1.68;97.61;99993.75;5006270;28;20070;-69
2021/12/02 06:58:44;;;;;;;5.03;1.98;;;;;;;1.72;97.47;99986.91;5005224;28;20038;-69
2021/12/02 07:01:09;;;;;;;5.80;1.80;;;;;;;1.70;97.54;99984.41;5006550;28;20033;-69
2021/12/02 07:03:35;;;;;;;5.78;2.38;;;;;;;1.72;97.23;99992.31;5008026;28;20036;-69
2021/12/02 07:06:00;;;;;;;5.63;1.85;;;;;;;1.71;97.52;100005.03;5007120;28;20025;-69
2021/12/02 07:08:26;;;;;;;22.63;13.38;;;;;;;1.66;97.42;100015.59;5006541;28;20041;-69
2021/12/02 07:10:51;;;;;;;25.23;14.52;;;;;;;1.68;97.91;100013.53;5004528;28;20037;-69
2021/12/02 07:13:16;;;;;;;17.60;11.90;;;;;;;1.69;98.01;100022.50;5025623;28;20021;-69
2021/12/02 07:16:00;;;;;;;9.02;5.75;;;;;;;1.73;98.18;100021.91;5007852;28;20061;-69
2021/12/02 07:18:25;;;;;;;9.73;4.22;;;;;;;1.79;98.18;100023.00;5001975;28;20361;-69
2021/12/02 07:20:51;;;;;;;9.60;3.13;;;;;;;1.81;98.04;100029.06;5007761;28;20026;-69
2021/12/02 07:23:19;;;;;;;7.70;2.85;;;;;;;1.85;98.02;100014.09;5006067;28;20169;-69
2021/12/02 07:25:45;;;;;;;6.28;2.45;;;;;;;1.95;96.73;100001.06;5006908;28;20136;-70
2021/12/02 07:28:12;;;;;;;7.38;1.95;;;;;;;1.90;96.32;100005.41;5016646;28;20038;-69
2021/12/02 07:30:38;;;;;;;6.00;1.42;;;;;;;1.89;95.63;100001.88;5018195;28;20041;-69
2021/12/02 07:33:04;;;;;;;8.75;2.05;;;;;;;1.90;95.36;100000.00;5006898;28;20656;-69
2021/12/02 07:35:29;;;;;;;4.57;2.00;;;;;;;1.87;95.02;100011.19;5006935;28;20758;-69
2021/12/02 07:37:57;;;;;;;8.00;1.70;;;;;;;1.85;95.21;100024.09;5006969;28;20029;-69
2021/12/02 07:40:24;;;;;;;5.75;2.15;;;;;;;1.78;95.28;100024.88;5004686;28;20037;-70
2021/12/02 07:42:54;;;;;;;7.28;1.70;;;;;;;1.76;94.89;100031.50;5006962;28;20034;-70
2021/12/02 07:45:23;;;;;;;6.65;3.25;;;;;;;1.72;95.07;100031.03;5005879;28;20037;-69
2021/12/02 07:47:49;;;;;;;12.07;5.30;;;;;;;1.69;95.26;100039.56;5006337;28;20116;-69
2021/12/02 07:50:16;;;;;;;8.27;3.28;;;;;;;1.67;95.02;100033.50;5005188;28;20116;-69
2021/12/02 07:53:05;;;;;;;9.07;2.85;;;;;;;1.71;95.18;100039.38;5025977;28;20036;-69
2021/12/02 07:55:35;;;;;;;6.75;2.85;;;;;;;1.73;95.57;100045.44;5007210;28;20046;-69
2021/12/02 07:58:05;;;;;;;5.47;2.13;;;;;;;1.73;95.97;100038.16;5005482;28;20026;-69
2021/12/02 08:00:30;;;;;;;9.70;3.55;;;;;;;1.81;95.28;100045.31;5025675;28;20029;-69
2021/12/02 08:02:56;;;;;;;19.20;9.20;;;;;;;1.77;95.32;100049.41;5011112;28;20038;-70
2021/12/02 08:05:23;;;;;;;18.23;8.05;;;;;;;1.78;95.12;100040.28;5006202;28;20497;-69
2021/12/02 08:07:48;;;;;;;11.80;7.70;;;;;;;1.74;95.52;100056.06;5005803;28;20049;-70
2021/12/02 08:10:15;;;;;;;13.10;5.35;;;;;;;1.71;95.15;100059.16;5004092;28;20493;-70
2021/12/02 08:12:46;;;;;;;9.13;3.75;;;;;;;1.69;95.34;100079.34;5005650;28;20041;-70
2021/12/02 08:15:13;;;;;;;6.80;2.40;;;;;;;1.66;95.75;100079.72;5005905;28;20022;-70
2021/12/02 08:17:38;;;;;;;8.15;2.10;;;;;;;1.64;95.56;100085.31;5006370;28;20413;-70
2021/12/02 08:20:04;;;;;;;6.43;2.10;;;;;;;1.65;95.87;100088.88;5005235;28;20042;-69
2021/12/02 08:22:31;;;;;;;13.55;3.80;;;;;;;1.65;95.74;100080.75;5023375;28;20120;-69
2021/12/02 08:24:56;;;;;;;9.27;4.95;;;;;;;1.69;96.14;100084.75;5025420;28;20025;-70
2021/12/02 08:27:22;;;;;;;12.20;5.20;;;;;;;1.79;96.31;100086.13;5006402;28;20036;-70
2021/12/02 08:29:48;;;;;;;7.60;3.38;;;;;;;2.12;96.34;100091.00;5006260;28;20022;-70
2021/12/02 08:32:13;;;;;;;5.43;2.35;;;;;;;2.49;95.23;100092.59;5006291;28;20417;-70
2021/12/02 08:34:39;;;;;;;9.88;3.22;;;;;;;2.80;94.51;100086.75;5012219;28;20066;-70
2021/12/02 08:37:05;;;;;;;6.07;2.70;;;;;;;2.94;92.87;100089.53;5025039;28;20727;-69
2021/12/02 08:39:32;;;;;;;6.00;2.45;;;;;;;2.97;91.95;100089.97;5025462;28;20501;-70
2021/12/02 08:41:58;;;;;;;13.27;5.97;;;;;;;2.97;92.62;100110.84;5006625;28;20034;-70
2021/12/02 08:44:25;;;;;;;9.30;5.30;;;;;;;3.05;92.52;100108.81;5004456;28;20026;-71
2021/12/02 08:46:52;;;;;;;12.18;5.15;;;;;;;3.21;92.59;100113.06;5005834;28;20037;-70
2021/12/02 08:49:18;;;;;;;18.52;8.60;;;;;;;3.58;91.29;100136.19;4998922;28;20033;-70
2021/12/02 08:51:45;;;;;;;12.90;5.18;;;;;;;3.56;90.75;100130.16;5002818;28;20037;-70
2021/12/02 08:54:11;;;;;;;9.77;3.70;;;;;;;3.43;90.82;100134.66;5010387;28;20084;-70
2021/12/02 08:56:37;;;;;;;12.07;5.85;;;;;;;3.29;91.16;100131.88;5004443;28;20152;-70
2021/12/02 08:59:03;;;;;;;14.50;7.15;;;;;;;3.19;91.08;100138.72;5011581;28;20117;-69
2021/12/02 09:01:30;;;;;;;16.02;5.60;;;;;;;3.10;91.39;100125.34;5004740;28;20400;-70
2021/12/02 09:03:56;;;;;;;14.75;4.15;;;;;;;3.11;91.45;100140.56;5003964;28;20473;-70
2021/12/02 09:06:23;;;;;;;9.45;4.28;;;;;;;3.30;91.47;100149.88;5005019;28;20378;-70
2021/12/02 09:08:50;;;;;;;12.18;4.22;;;;;;;3.72;90.36;100147.97;5004872;28;20026;-70
2021/12/02 09:11:15;;;;;;;8.20;2.50;;;;;;;3.95;88.98;100153.03;5004925;28;20614;-70
2021/12/02 09:13:42;;;;;;;5.97;1.98;;;;;;;3.95;88.19;100157.63;5005004;28;20064;-70
2021/12/02 09:16:07;;;;;;;6.10;2.40;;;;;;;3.80;88.38;100169.53;5003944;28;20518;-70
2021/12/02 09:18:32;;;;;;;9.70;2.40;;;;;;;3.58;88.48;100160.63;5000953;28;20025;-71
2021/12/02 09:20:58;;;;;;;6.22;2.83;;;;;;;3.38;89.32;100162.41;5015410;28;20476;-70
2021/12/02 09:23:24;;;;;;;10.57;2.60;;;;;;;3.26;89.79;100164.88;5003583;28;20029;-70
2021/12/02 09:25:49;;;;;;;9.75;2.63;;;;;;;3.12;89.83;100166.66;5019546;28;20108;-70
2021/12/02 09:28:15;;;;;;;6.93;2.25;;;;;;;3.05;90.54;100176.63;5001672;28;20009;-70
2021/12/02 09:30:41;;;;;;;10.20;3.03;;;;;;;3.10;90.85;100174.16;5005248;28;20112;-70
2021/12/02 09:33:07;;;;;;;8.00;3.60;;;;;;;3.21;90.98;100182.78;5002083;28;20061;-70
2021/12/02 09:35:33;;;;;;;9.80;3.45;;;;;;;3.33;90.82;100183.91;5006609;28;20060;-70
2021/12/02 09:37:58;;;;;;;5.55;2.63;;;;;;;3.48;90.62;100179.16;5014849;28;20476;-69
2021/12/02 09:40:24;;;;;;;7.40;2.15;;;;;;;3.64;90.02;100186.13;5015883;28;20037;-70
2021/12/02 09:42:49;;;;;;;8.10;2.95;;;;;;;3.75;89.00;100182.00;5005180;28;20025;-70
2021/12/02 09:45:16;;;;;;;7.38;2.78;;;;;;;3.91;88.65;100178.97;5004757;28;20026;-70
2021/12/02 09:47:47;;;;;;;9.73;2.70;;;;;;;4.16;87.58;100171.94;5002819;28;20033;-70
2021/12/02 09:50:36;;;;;;;9.65;3.03;;;;;;;4.61;84.83;100180.38;5010054;28;20472;-70
2021/12/02 09:53:10;;;;;;;8.50;2.72;;;;;;;5.59;83.71;100180.44;5004092;28;20045;-69
2021/12/02 09:58:08;;;;;;;9.20;3.22;;;;;;;8.72;71.96;100165.53;5000707;28;20477;-70
2021/12/02 10:00:48;;;;;;;8.38;2.78;;;;;;;10.53;66.17;100168.06;4996691;28;20037;-70
2021/12/02 10:05:58;;;;;;;8.77;2.85;;;;;;;12.92;59.24;100173.19;5002853;28;20042;-71
2021/12/02 10:08:28;;;;;;;5.63;3.10;;;;;;;13.75;53.24;100179.06;5003451;28;20058;-70
2021/12/02 10:11:01;;;;;;;6.97;2.65;;;;;;;14.04;51.67;100173.94;5004500;28;20049;-71
2021/12/02 10:13:34;;;;;;;6.60;2.33;;;;;;;13.64;52.62;100174.59;5003733;28;20033;-70
2021/12/02 10:16:22;;;;;;;6.65;2.70;;;;;;;12.50;56.35;100181.34;5004233;28;20460;-71
2021/12/02 10:21:37;;;;;;;4.22;1.60;;;;;;;9.04;63.03;100198.91;4998551;28;20798;-71
2021/12/02 10:24:09;;;;;;;11.05;2.30;;;;;;;7.69;66.79;100210.22;4984638;28;20030;-71
2021/12/02 10:26:41;;;;;;;10.90;3.65;;;;;;;6.99;69.57;100205.88;5004981;28;20026;-71
2021/12/02 10:29:08;;;;;;;6.25;2.05;;;;;;;6.96;69.32;100208.22;5006456;28;20034;-70
2021/12/02 10:31:34;;;;;;;5.35;2.42;;;;;;;7.53;69.46;100207.03;5000181;28;20050;-70
2021/12/02 10:34:03;;;;;;;5.35;2.42;;;;;;;8.04;67.64;100208.53;5011585;28;20570;-71
2021/12/02 10:36:45;;;;;;;7.97;3.25;;;;;;;7.95;68.19;100207.16;4999840;28;20506;-70
2021/12/02 10:39:25;;;;;;;8.45;3.80;;;;;;;9.14;66.63;100203.78;5000102;28;20038;-71
2021/12/02 10:42:00;;;;;;;5.93;2.58;;;;;;;10.53;62.22;100195.53;5003603;28;20030;-71
2021/12/02 10:44:30;;;;;;;6.70;2.28;;;;;;;11.57;56.97;100192.31;5006251;28;20044;-70
2021/12/02 10:47:02;;;;;;;8.23;3.58;;;;;;;11.73;56.44;100196.09;5001176;28;20913;-71
2021/12/02 10:49:42;;;;;;;5.88;3.00;;;;;;;12.57;55.52;100193.84;5006849;28;20029;-70
2021/12/02 10:52:17;;;;;;;4.97;2.50;;;;;;;12.95;52.78;100208.50;5004640;28;20029;-70
2021/12/02 10:54:49;;;;;;;5.28;2.50;;;;;;;12.91;53.58;100219.22;4994576;28;20068;-70
2021/12/02 10:57:19;;;;;;;3.33;1.23;;;;;;;11.82;53.43;100220.19;4998252;28;20046;-71
2021/12/02 10:59:59;;;;;;;3.67;1.40;;;;;;;10.50;59.75;100229.81;5007660;28;20092;-71
2021/12/02 11:02:29;;;;;;;4.72;1.65;;;;;;;8.61;62.14;100224.63;5005507;28;20022;-71
2021/12/02 11:05:10;;;;;;;5.47;2.00;;;;;;;7.46;67.86;100228.13;4995737;28;20018;-71
2021/12/02 11:07:41;;;;;;;3.47;1.90;;;;;;;6.48;71.35;100233.31;5010465;28;20032;-71
2021/12/02 11:10:08;;;;;;;5.32;1.63;;;;;;;5.80;73.41;100241.97;5009474;28;20476;-71
2021/12/02 11:12:38;;;;;;;2.80;1.40;;;;;;;5.27;75.70;100244.81;5013855;28;20072;-71
2021/12/02 11:15:08;;;;;;;7.72;1.30;;;;;;;4.84;76.62;100252.56;4994822;28;20032;-70
2021/12/02 11:17:53;;;;;;;3.78;1.50;;;;;;;4.94;77.82;100247.53;4996046;28;20030;-70
2021/12/02 11:20:34;;;;;;;2.50;1.20;;;;;;;5.61;76.59;100246.44;5003358;28;20026;-71
2021/12/02 11:23:21;;;;;;;3.45;1.48;;;;;;;6.34;74.82;100257.13;4998624;28;20121;-71
2021/12/02 11:26:02;;;;;;;6.78;2.08;;;;;;;7.94;70.86;100249.25;4993590;28;20041;-70
2021/12/02 11:28:31;;;;;;;3.70;1.60;;;;;;;9.51;64.43;100232.63;5007315;28;20049;-70
2021/12/02 11:30:58;;;;;;;3.70;1.45;;;;;;;10.82;58.25;100232.88;5018360;28;20522;-71
2021/12/02 11:33:32;;;;;;;6.20;1.40;;;;;;;11.98;58.81;100229.47;5007421;28;20041;-71
2021/12/02 11:35:57;;;;;;;3.45;1.85;;;;;;;12.08;54.62;100220.53;5006655;28;20376;-71
2021/12/02 11:38:26;;;;;;;2.97;0.95;;;;;;;10.83;56.99;100228.22;5006917;28;20029;-71
2021/12/02 11:40:54;;;;;;;3.53;1.20;;;;;;;9.75;61.00;100238.94;5008848;28;20121;-71
2021/12/02 11:43:24;;;;;;;4.82;1.85;;;;;;;8.53;63.09;100233.19;5005814;28;20034;-71
2021/12/02 11:45:50;;;;;;;4.50;1.80;;;;;;;7.38;67.09;100238.50;5005777;28;20034;-72
2021/12/02 11:48:18;;;;;;;3.47;1.80;;;;;;;6.50;71.36;100233.94;5006411;28;20030;-71
2021/12/02 11:50:44;;;;;;;5.53;2.73;;;;;;;5.88;74.07;100235.44;5003627;28;20018;-71
2021/12/02 11:53:10;;;;;;;4.80;2.08;;;;;;;5.46;75.73;100243.09;5005728;28;20395;-70
2021/12/02 11:55:39;;;;;;;5.40;2.20;;;;;;;5.14;76.66;100242.94;5005893;28;20164;-70
2021/12/02 11:58:05;;;;;;;3.97;2.30;;;;;;;4.85;77.93;100254.22;5005529;28;20053;-71
2021/12/02 12:00:31;;;;;;;2.85;1.00;;;;;;;4.48;79.45;100264.63;5006644;28;20123;-70
2021/12/02 12:03:06;;;;;;;2.03;1.10;;;;;;;4.24;80.91;100276.06;5007490;28;20030;-70
2021/12/02 12:05:35;;;;;;;2.30;1.30;;;;;;;4.12;81.85;100273.09;5005667;28;20040;-70
2021/12/02 12:08:01;;;;;;;1.13;0.93;;;;;;;4.03;81.78;100269.69;5007289;28;20029;-70
2021/12/02 12:10:39;;;;;;;1.70;1.00;;;;;;;4.00;82.63;100280.97;4995458;28;20087;-70
2021/12/02 12:13:17;;;;;;;3.97;1.90;;;;;;;3.97;82.04;100278.66;5006649;28;20072;-70
2021/12/02 12:16:03;;;;;;;3.78;1.50;;;;;;;4.03;83.15;100279.72;5005482;28;20030;-70
2021/12/02 12:18:28;;;;;;;1.40;1.30;;;;;;;4.03;82.64;100280.56;5004003;28;20057;-70
2021/12/02 12:21:13;;;;;;;2.97;1.60;;;;;;;4.06;83.89;100282.06;5003208;28;20022;-70
2021/12/02 12:23:42;;;;;;;4.15;1.60;;;;;;;4.09;83.41;100297.94;5006118;28;20401;-71
2021/12/02 12:26:18;;;;;;;3.83;2.10;;;;;;;4.31;83.53;100298.66;5006428;28;20164;-70
2021/12/02 12:29:06;;;;;;;8.10;3.15;;;;;;;5.38;81.35;100295.91;5010072;28;20040;-70
2021/12/02 12:31:48;;;;;;;6.75;3.60;;;;;;;6.61;76.28;100290.53;5026593;28;20033;-70
2021/12/02 12:34:53;;;;;;;4.68;1.77;;;;;;;7.91;72.73;100301.69;5008418;28;20516;-70
2021/12/02 12:37:46;;;;;;;5.30;2.20;;;;;;;8.54;67.60;100278.63;4985975;28;20076;-70
2021/12/02 12:40:25;;;;;;;3.40;1.60;;;;;;;8.66;66.26;100275.94;4986068;28;20037;-70
2021/12/02 12:42:56;;;;;;;3.65;1.98;;;;;;;9.01;66.63;100287.00;4995974;28;20042;-70
2021/12/02 12:45:26;;;;;;;4.10;1.75;;;;;;;8.78;65.24;100279.56;5005018;28;20479;-70
2021/12/02 12:47:58;;;;;;;3.33;1.92;;;;;;;7.69;67.09;100287.59;5001050;28;20057;-72
2021/12/02 12:50:44;;;;;;;3.97;2.00;;;;;;;6.75;71.00;100303.06;5001669;28;20030;-72
2021/12/02 12:53:15;;;;;;;4.07;1.80;;;;;;;6.02;72.86;100307.97;5007689;28;20026;-73
2021/12/02 12:55:59;;;;;;;5.97;3.10;;;;;;;5.52;75.25;100314.94;5008241;28;20176;-70
2021/12/02 12:58:27;;;;;;;4.90;2.13;;;;;;;5.26;77.13;100332.13;4997957;28;20052;-71
2021/12/02 13:00:55;;;;;;;6.10;2.20;;;;;;;5.08;78.27;100339.03;5005867;28;20025;-70
2021/12/02 13:03:30;;;;;;;;;;;;;;;5.12;78.19;100342.16;5005863;28;20026;-71
2021/12/02 13:06:20;;;;;;;3.75;2.00;;;;;;;4.84;78.95;100350.50;5005212;28;19928;-70
2021/12/02 13:08:47;;;;;;;5.55;2.20;;;;;;;4.72;79.47;100354.88;4996442;28;20041;-70
2021/12/02 13:11:14;;;;;;;4.63;2.58;;;;;;;4.65;79.88;100366.56;5005016;28;20041;-70